createdAt,value
2018-09-28T00:01:46.993Z,79.90
2018-09-28T00:04:15.654Z,80.10
2018-09-28T00:06:44.311Z,80.00
2018-09-28T00:09:12.968Z,79.70
2018-09-28T00:11:41.694Z,79.70
2018-09-28T00:14:10.496Z,79.30
2018-09-28T00:16:39.145Z,78.90
2018-09-28T00:19:07.813Z,78.30
2018-09-28T00:21:36.466Z,80.40
2018-09-28T00:24:05.137Z,81.70
2018-09-28T00:26:33.790Z,82.70
2018-09-28T00:29:02.517Z,83.20
2018-09-28T00:31:31.169Z,82.60
2018-09-28T00:33:59.838Z,83.00
2018-09-28T00:36:28.491Z,83.10
2018-09-28T00:38:57.225Z,83.80
2018-09-28T00:41:25.877Z,84.60
2018-09-28T00:43:54.530Z,85.20
2018-09-28T00:46:23.252Z,84.80
2018-09-28T00:48:51.957Z,80.60
2018-09-28T00:51:20.602Z,79.00
2018-09-28T00:53:49.270Z,77.90
2018-09-28T00:56:17.904Z,76.30
2018-09-28T00:58:46.566Z,75.70
2018-09-28T01:01:15.217Z,75.30
2018-09-28T01:03:43.868Z,74.80
2018-09-28T01:06:12.522Z,74.70
2018-09-28T01:08:41.182Z,74.60
2018-09-28T01:11:09.834Z,74.50
2018-09-28T01:13:38.494Z,74.70
2018-09-28T01:16:07.151Z,75.20
2018-09-28T01:18:35.805Z,75.40
2018-09-28T01:21:04.468Z,75.70
2018-09-28T01:23:33.137Z,75.90
2018-09-28T01:26:01.858Z,76.20
2018-09-28T01:28:30.492Z,76.60
2018-09-28T01:30:59.150Z,76.80
2018-09-28T01:33:27.810Z,76.60
2018-09-28T01:35:56.477Z,77.00
2018-09-28T01:38:25.158Z,77.10
2018-09-28T01:40:53.812Z,77.30
2018-09-28T01:43:22.516Z,77.60
2018-09-28T01:45:51.207Z,78.10
2018-09-28T01:48:19.853Z,78.60
2018-09-28T01:50:48.522Z,79.00
2018-09-28T01:53:17.254Z,79.20
2018-09-28T01:55:45.917Z,79.90
2018-09-28T01:58:14.597Z,80.10
2018-09-28T02:00:43.329Z,80.30
2018-09-28T02:03:12.027Z,80.60
2018-09-28T02:05:40.641Z,80.80
2018-09-28T02:08:09.303Z,81.40
2018-09-28T02:10:37.963Z,81.60
2018-09-28T02:13:06.604Z,82.10
2018-09-28T02:15:35.262Z,82.20
2018-09-28T02:18:03.913Z,82.10
2018-09-28T02:20:32.567Z,81.80
2018-09-28T02:23:01.225Z,81.90
2018-09-28T02:25:29.885Z,81.90
2018-09-28T02:27:58.538Z,81.80
2018-09-28T02:30:27.214Z,82.10
2018-09-28T02:32:55.865Z,82.30
2018-09-28T02:35:24.527Z,83.10
2018-09-28T02:37:53.732Z,83.20
2018-09-28T02:40:22.401Z,83.50
2018-09-28T02:42:51.063Z,83.80
2018-09-28T02:45:19.725Z,84.20
2018-09-28T02:47:48.374Z,84.70
2018-09-28T02:50:17.040Z,85.20
2018-09-28T02:52:45.706Z,86.10
2018-09-28T02:55:14.386Z,86.80
2018-09-28T02:57:43.038Z,87.10
2018-09-28T03:00:11.697Z,87.80
2018-09-28T03:02:40.367Z,88.50
2018-09-28T03:05:09.026Z,89.00
2018-09-28T03:07:37.687Z,90.00
2018-09-28T03:10:06.359Z,90.20
2018-09-28T03:12:35.018Z,90.30
2018-09-28T03:15:03.719Z,90.60
2018-09-28T03:17:32.378Z,90.80
2018-09-28T03:20:01.043Z,91.20
2018-09-28T03:22:29.698Z,91.30
2018-09-28T03:24:58.372Z,92.00
2018-09-28T03:27:27.035Z,92.30
2018-09-28T03:29:55.782Z,92.30
2018-09-28T03:32:24.443Z,92.80
2018-09-28T03:34:53.230Z,93.40
2018-09-28T03:37:21.894Z,93.70
2018-09-28T03:39:51.227Z,93.50
2018-09-28T03:42:19.898Z,94.20
2018-09-28T03:44:48.575Z,94.20
2018-09-28T03:47:17.277Z,94.30
2018-09-28T03:49:45.943Z,94.10
2018-09-28T03:52:14.619Z,94.90
2018-09-28T03:54:43.281Z,95.10
2018-09-28T03:57:11.950Z,94.80
2018-09-28T03:59:40.635Z,94.70
2018-09-28T04:02:09.294Z,94.70
2018-09-28T04:04:37.938Z,94.70
2018-09-28T04:07:06.612Z,94.80
2018-09-28T04:09:35.267Z,94.90
2018-09-28T04:12:03.931Z,95.30
2018-09-28T04:14:32.614Z,95.50
2018-09-28T04:17:01.283Z,95.90
2018-09-28T04:19:29.980Z,96.30
2018-09-28T04:22:00.895Z,98.00
2018-09-28T04:24:30.618Z,99.70
2018-09-28T04:26:59.309Z,98.30
2018-09-28T04:29:27.965Z,97.80
2018-09-28T04:31:56.646Z,98.50
2018-09-28T04:34:25.310Z,98.90
2018-09-28T04:36:53.989Z,99.80
2018-09-28T04:39:22.674Z,99.90
2018-09-28T04:41:51.369Z,99.90
2018-09-28T04:44:19.997Z,99.90
2018-09-28T04:46:48.649Z,99.90
2018-09-28T04:49:17.318Z,99.90
2018-09-28T04:51:45.972Z,99.90
2018-09-28T04:54:14.631Z,99.90
2018-09-28T04:56:43.295Z,99.90
2018-09-28T04:59:12.048Z,99.90
2018-09-28T05:01:40.709Z,99.90
2018-09-28T05:04:09.366Z,99.90
2018-09-28T05:06:38.092Z,99.90
2018-09-28T05:09:09.138Z,99.90
2018-09-28T05:11:37.828Z,99.90
2018-09-28T05:14:06.494Z,99.90
2018-09-28T05:16:35.182Z,99.90
2018-09-28T05:19:03.829Z,99.90
2018-09-28T05:21:32.737Z,99.90
2018-09-28T05:24:01.404Z,99.90
2018-09-28T05:26:30.209Z,99.90
2018-09-28T05:28:59.013Z,99.90
2018-09-28T05:31:27.786Z,99.90
2018-09-28T05:33:56.386Z,99.90
2018-09-28T05:36:25.071Z,99.90
2018-09-28T05:38:53.755Z,99.90
2018-09-28T05:41:22.452Z,99.90
2018-09-28T05:43:51.166Z,99.90
2018-09-28T05:46:19.841Z,99.90
2018-09-28T05:48:48.478Z,99.90
2018-09-28T05:51:17.280Z,99.90
2018-09-28T05:53:45.913Z,99.90
2018-09-28T05:56:14.573Z,99.90
2018-09-28T05:58:48.653Z,99.90
2018-09-28T06:01:22.735Z,99.90
2018-09-28T06:03:56.938Z,99.90
2018-09-28T06:06:25.611Z,99.90
2018-09-28T06:08:54.286Z,99.90
2018-09-28T06:11:22.950Z,99.90
2018-09-28T06:13:51.719Z,99.90
2018-09-28T06:16:20.410Z,99.90
2018-09-28T06:18:49.115Z,99.90
2018-09-28T06:21:17.757Z,99.90
2018-09-28T06:23:46.457Z,99.90
2018-09-28T06:26:15.171Z,99.90
2018-09-28T06:28:43.834Z,99.90
2018-09-28T06:31:12.523Z,99.90
2018-09-28T06:33:41.178Z,99.90
2018-09-28T06:36:09.930Z,99.90
2018-09-28T06:38:38.549Z,99.90
2018-09-28T06:41:07.214Z,99.90
2018-09-28T06:43:35.871Z,99.90
2018-09-28T06:46:04.544Z,99.90
2018-09-28T06:48:33.213Z,99.90
2018-09-28T06:51:01.896Z,99.90
2018-09-28T06:53:30.554Z,99.90
2018-09-28T06:55:59.266Z,99.90
2018-09-28T06:58:27.950Z,99.90
2018-09-28T07:00:56.625Z,99.90
2018-09-28T07:03:25.318Z,99.90
2018-09-28T07:05:54.048Z,99.90
2018-09-28T07:08:22.695Z,99.90
2018-09-28T07:10:51.362Z,99.90
2018-09-28T07:13:20.086Z,99.90
2018-09-28T07:15:48.730Z,99.90
2018-09-28T07:18:17.416Z,99.90
2018-09-28T07:20:46.058Z,99.90
2018-09-28T07:23:14.718Z,99.90
2018-09-28T07:25:43.490Z,99.90
2018-09-28T07:28:12.159Z,99.90
2018-09-28T07:30:40.819Z,99.90
2018-09-28T07:33:09.644Z,99.90
2018-09-28T07:35:38.314Z,99.90
2018-09-28T07:38:06.984Z,99.90
2018-09-28T07:40:35.649Z,99.90
2018-09-28T07:43:04.407Z,99.90
2018-09-28T07:45:33.071Z,99.90
2018-09-28T07:48:01.814Z,99.90
2018-09-28T07:50:30.451Z,99.90
2018-09-28T07:52:59.154Z,99.90
2018-09-28T07:55:27.825Z,99.90
2018-09-28T07:57:56.521Z,99.90
2018-09-28T08:00:25.177Z,99.90
2018-09-28T08:02:53.858Z,99.90
2018-09-28T08:05:22.573Z,99.90
2018-09-28T08:07:51.267Z,99.90
2018-09-28T08:10:19.939Z,99.90
2018-09-28T08:12:48.594Z,99.90
2018-09-28T08:15:17.286Z,99.90
2018-09-28T08:17:46.209Z,99.90
2018-09-28T08:20:14.817Z,99.90
2018-09-28T08:22:43.501Z,99.90
2018-09-28T08:25:12.260Z,99.90
2018-09-28T08:27:40.974Z,99.90
2018-09-28T08:30:09.698Z,99.90
2018-09-28T08:32:38.358Z,99.90
2018-09-28T08:35:07.010Z,99.90
2018-09-28T08:37:35.719Z,99.90
2018-09-28T08:40:04.466Z,99.90
2018-09-28T08:42:33.259Z,99.90
2018-09-28T08:45:01.946Z,99.90
2018-09-28T08:47:30.733Z,99.90
2018-09-28T08:49:59.371Z,99.90
2018-09-28T08:52:28.035Z,99.90
2018-09-28T08:54:56.699Z,99.90
2018-09-28T08:57:26.315Z,99.90
2018-09-28T08:59:55.004Z,99.90
2018-09-28T09:02:23.653Z,99.90
2018-09-28T09:04:52.383Z,99.90
2018-09-28T09:07:21.074Z,99.90
2018-09-28T09:09:49.753Z,99.90
2018-09-28T09:12:18.429Z,99.90
2018-09-28T09:14:47.091Z,99.90
2018-09-28T09:17:15.863Z,99.90
2018-09-28T09:19:44.610Z,99.90
2018-09-28T09:22:13.269Z,99.90
2018-09-28T09:24:41.926Z,99.90
2018-09-28T09:27:10.615Z,99.90
2018-09-28T09:29:39.263Z,99.90
2018-09-28T09:32:07.911Z,99.90
2018-09-28T09:34:36.582Z,99.90
2018-09-28T09:37:05.345Z,99.90
2018-09-28T09:39:34.018Z,99.90
2018-09-28T09:42:02.701Z,99.90
2018-09-28T09:44:31.378Z,99.90
2018-09-28T09:47:00.061Z,99.90
2018-09-28T09:49:28.759Z,99.90
2018-09-28T09:51:57.417Z,99.90
2018-09-28T09:54:26.077Z,99.90
2018-09-28T09:56:54.739Z,99.90
2018-09-28T09:59:23.404Z,99.90
2018-09-28T10:01:57.645Z,99.90
2018-09-28T10:04:26.326Z,99.90
2018-09-28T10:06:55.007Z,99.90
2018-09-28T10:09:23.670Z,99.90
2018-09-28T10:11:52.317Z,99.90
2018-09-28T10:14:20.984Z,99.90
2018-09-28T10:16:49.798Z,99.20
2018-09-28T10:19:18.523Z,98.50
2018-09-28T10:21:47.119Z,97.20
2018-09-28T10:24:15.788Z,97.30
2018-09-28T10:26:44.458Z,94.60
2018-09-28T10:29:13.148Z,87.20
2018-09-28T10:31:41.819Z,83.20
2018-09-28T10:34:10.555Z,83.20
2018-09-28T10:36:39.167Z,88.90
2018-09-28T10:39:08.123Z,90.20
2018-09-28T10:41:36.937Z,87.60
2018-09-28T10:44:05.945Z,86.00
2018-09-28T10:46:34.765Z,89.00
2018-09-28T10:49:03.372Z,90.00
2018-09-28T10:51:32.021Z,86.70
2018-09-28T10:54:00.690Z,86.10
2018-09-28T10:56:29.360Z,83.90
2018-09-28T10:58:58.180Z,84.90
2018-09-28T11:01:26.714Z,84.00
2018-09-28T11:03:55.373Z,84.70
2018-09-28T11:06:24.039Z,84.30
2018-09-28T11:08:52.764Z,80.80
2018-09-28T11:11:21.470Z,77.70
2018-09-28T11:13:50.139Z,82.50
2018-09-28T11:16:18.840Z,83.20
2018-09-28T11:18:47.535Z,83.30
2018-09-28T11:21:16.244Z,84.00
2018-09-28T11:23:45.013Z,85.50
2018-09-28T11:26:13.757Z,86.80
2018-09-28T11:28:42.470Z,86.40
2018-09-28T11:31:11.934Z,85.90
2018-09-28T11:33:40.696Z,83.80
2018-09-28T11:36:09.333Z,84.40
2018-09-28T11:38:37.966Z,83.80
2018-09-28T11:41:08.087Z,82.90
2018-09-28T11:43:36.833Z,79.80
2018-09-28T11:46:05.544Z,77.40
2018-09-28T11:48:34.188Z,78.60
2018-09-28T11:51:02.881Z,79.90
2018-09-28T11:53:31.551Z,81.40
2018-09-28T11:56:00.199Z,80.70
2018-09-28T11:58:29.138Z,79.30
2018-09-28T12:00:57.793Z,79.80
2018-09-28T12:03:26.518Z,77.80
2018-09-28T12:05:55.101Z,80.80
2018-09-28T12:08:23.770Z,80.50
2018-09-28T12:10:52.438Z,78.90
2018-09-28T12:13:21.094Z,81.00
2018-09-28T12:15:49.787Z,79.40
2018-09-28T12:18:18.478Z,81.30
2018-09-28T12:20:47.093Z,83.30
2018-09-28T12:23:15.767Z,84.10
2018-09-28T12:25:44.431Z,85.70
2018-09-28T12:28:13.123Z,87.30
2018-09-28T12:30:41.825Z,86.10
2018-09-28T12:33:10.591Z,87.00
2018-09-28T12:35:39.200Z,87.30
2018-09-28T12:38:07.902Z,89.90
2018-09-28T12:40:36.670Z,90.70
2018-09-28T12:43:05.330Z,90.10
2018-09-28T12:45:34.083Z,88.20
2018-09-28T12:48:02.720Z,88.90
2018-09-28T12:50:31.384Z,90.40
2018-09-28T12:53:00.011Z,90.30
2018-09-28T12:55:28.666Z,90.80
2018-09-28T12:57:57.325Z,90.90
2018-09-28T13:00:26.104Z,91.20
2018-09-28T13:02:54.646Z,91.10
2018-09-28T13:05:23.321Z,86.50
2018-09-28T13:07:51.985Z,85.30
2018-09-28T13:10:20.640Z,86.60
2018-09-28T13:12:49.348Z,87.10
2018-09-28T13:15:17.973Z,86.20
2018-09-28T13:17:46.595Z,85.60
2018-09-28T13:20:15.277Z,83.80
2018-09-28T13:22:43.918Z,83.40
2018-09-28T13:25:12.579Z,84.20
2018-09-28T13:27:41.961Z,85.20
2018-09-28T13:30:10.694Z,85.90
2018-09-28T13:32:39.340Z,86.40
2018-09-28T13:35:07.970Z,86.00
2018-09-28T13:37:36.628Z,84.70
2018-09-28T13:40:05.288Z,83.10
2018-09-28T13:42:34.014Z,80.60
2018-09-28T13:45:02.705Z,77.30
2018-09-28T13:47:31.419Z,74.20
2018-09-28T13:50:00.067Z,75.80
2018-09-28T13:52:28.769Z,74.00
2018-09-28T13:54:57.391Z,73.10
2018-09-28T13:57:26.063Z,74.60
2018-09-28T13:59:54.747Z,76.80
2018-09-28T14:02:23.460Z,77.90
2018-09-28T14:04:52.072Z,78.90
2018-09-28T14:07:20.720Z,80.10
2018-09-28T14:09:49.407Z,80.50
2018-09-28T14:12:18.123Z,79.80
2018-09-28T14:14:46.868Z,78.10
2018-09-28T14:17:15.527Z,77.20
2018-09-28T14:19:44.218Z,77.80
2018-09-28T14:22:13.226Z,75.60
2018-09-28T14:24:41.931Z,75.20
2018-09-28T14:27:10.633Z,74.90
2018-09-28T14:29:39.378Z,73.90
2018-09-28T14:32:08.118Z,74.00
2018-09-28T14:34:36.928Z,74.20
2018-09-28T14:37:05.579Z,74.60
2018-09-28T14:39:34.222Z,72.70
2018-09-28T14:42:02.972Z,68.90
2018-09-28T14:44:31.542Z,68.20
2018-09-28T14:47:00.335Z,68.00
2018-09-28T14:49:28.994Z,66.40
2018-09-28T14:51:57.641Z,67.30
2018-09-28T14:54:26.338Z,66.60
2018-09-28T14:56:54.983Z,67.00
2018-09-28T14:59:23.759Z,68.30
2018-09-28T15:01:52.402Z,68.70
2018-09-28T15:04:21.191Z,69.80
2018-09-28T15:06:49.978Z,69.00
2018-09-28T15:09:18.552Z,70.00
2018-09-28T15:11:47.304Z,72.20
2018-09-28T15:14:15.999Z,74.20
2018-09-28T15:16:44.725Z,75.60
2018-09-28T15:19:13.481Z,76.40
2018-09-28T15:21:42.144Z,75.80
2018-09-28T15:24:10.829Z,74.20
2018-09-28T15:26:39.512Z,73.50
2018-09-28T15:29:08.243Z,72.80
2018-09-28T15:31:36.975Z,73.10
2018-09-28T15:34:05.694Z,74.80
2018-09-28T15:36:34.517Z,71.80
2018-09-28T15:39:04.498Z,70.80
2018-09-28T15:41:33.245Z,72.00
2018-09-28T15:44:01.904Z,72.70
2018-09-28T15:46:30.546Z,72.80
2018-09-28T15:48:59.285Z,72.40
2018-09-28T15:51:27.975Z,73.00
2018-09-28T15:53:56.733Z,71.90
2018-09-28T15:56:25.383Z,72.50
2018-09-28T15:58:54.026Z,72.00
2018-09-28T16:01:22.715Z,72.00
2018-09-28T16:03:51.353Z,71.50
2018-09-28T16:06:19.993Z,71.50
2018-09-28T16:08:48.637Z,71.40
2018-09-28T16:11:17.365Z,71.90
2018-09-28T16:13:45.999Z,72.00
2018-09-28T16:16:14.691Z,72.70
2018-09-28T16:18:43.354Z,73.20
2018-09-28T16:21:11.986Z,74.70
2018-09-28T16:23:40.634Z,75.00
2018-09-28T16:26:09.362Z,75.50
2018-09-28T16:28:38.026Z,76.10
2018-09-28T16:31:06.739Z,77.30
2018-09-28T16:33:35.675Z,78.20
2018-09-28T16:36:04.355Z,79.20
2018-09-28T16:38:32.968Z,79.10
2018-09-28T16:41:01.641Z,78.60
2018-09-28T16:43:30.355Z,79.10
2018-09-28T16:45:59.050Z,80.00
2018-09-28T16:48:27.754Z,80.50
2018-09-28T16:50:56.406Z,81.30
2018-09-28T16:53:25.099Z,82.90
2018-09-28T16:55:54.073Z,82.30
2018-09-28T16:58:22.743Z,82.50
2018-09-28T17:00:51.473Z,83.80
2018-09-28T17:03:20.170Z,84.60
2018-09-28T17:05:48.800Z,85.90
2018-09-28T17:08:17.462Z,87.70
2018-09-28T17:10:46.125Z,89.20
2018-09-28T17:13:14.785Z,90.10
2018-09-28T17:15:43.457Z,90.60
2018-09-28T17:18:12.153Z,90.80
2018-09-28T17:20:40.935Z,91.70
2018-09-28T17:23:09.630Z,92.50
2018-09-28T17:25:38.313Z,93.40
2018-09-28T17:28:07.142Z,93.50
2018-09-28T17:30:35.899Z,94.30
2018-09-28T17:33:04.554Z,94.10
2018-09-28T17:35:33.246Z,94.30
2018-09-28T17:38:01.926Z,94.60
2018-09-28T17:40:30.627Z,94.60
2018-09-28T17:42:59.278Z,95.20
2018-09-28T17:45:27.934Z,95.90
2018-09-28T17:47:56.682Z,96.40
2018-09-28T17:50:25.347Z,97.00
2018-09-28T17:52:54.019Z,97.80
2018-09-28T17:55:22.686Z,98.60
2018-09-28T17:57:51.349Z,98.90
2018-09-28T18:00:20.006Z,99.70
2018-09-28T18:02:48.669Z,99.90
2018-09-28T18:05:17.375Z,99.90
2018-09-28T18:07:46.045Z,99.90
2018-09-28T18:10:14.703Z,99.90
2018-09-28T18:12:43.368Z,99.90
2018-09-28T18:15:12.166Z,99.90
2018-09-28T18:17:40.939Z,99.90
2018-09-28T18:20:09.652Z,99.90
2018-09-28T18:22:38.258Z,99.90
2018-09-28T18:25:06.918Z,99.90
2018-09-28T18:27:35.578Z,99.90
2018-09-28T18:30:04.639Z,99.90
2018-09-28T18:32:33.314Z,99.90
2018-09-28T18:35:02.025Z,99.90
2018-09-28T18:37:30.795Z,99.90
2018-09-28T18:39:59.458Z,99.90
2018-09-28T18:42:28.126Z,99.90
2018-09-28T18:44:56.798Z,99.90
2018-09-28T18:47:25.559Z,99.90
2018-09-28T18:49:54.182Z,99.90
2018-09-28T18:52:22.856Z,99.90
2018-09-28T18:54:51.543Z,99.90
2018-09-28T18:57:20.261Z,99.90
2018-09-28T18:59:49.037Z,99.90
2018-09-28T19:02:17.703Z,99.90
2018-09-28T19:04:46.350Z,99.90
2018-09-28T19:07:15.141Z,99.90
2018-09-28T19:09:43.895Z,99.90
2018-09-28T19:12:12.615Z,99.90
2018-09-28T19:14:41.231Z,99.90
2018-09-28T19:17:09.903Z,99.90
2018-09-28T19:19:38.551Z,99.90
2018-09-28T19:22:07.334Z,99.90
2018-09-28T19:24:35.998Z,99.90
2018-09-28T19:27:04.710Z,99.90
2018-09-28T19:29:33.391Z,99.90
2018-09-28T19:32:02.060Z,99.90
2018-09-28T19:34:30.700Z,99.90
2018-09-28T19:36:59.363Z,99.90
2018-09-28T19:39:28.437Z,99.90
2018-09-28T19:41:57.127Z,99.90
2018-09-28T19:44:25.791Z,99.90
2018-09-28T19:46:54.449Z,99.90
2018-09-28T19:49:23.206Z,99.90
2018-09-28T19:51:51.861Z,99.90
2018-09-28T19:54:20.526Z,99.90
2018-09-28T19:56:49.187Z,99.90
2018-09-28T19:59:17.849Z,99.90
2018-09-28T20:01:46.583Z,99.90
2018-09-28T20:04:15.485Z,99.90
2018-09-28T20:06:44.138Z,99.90
2018-09-28T20:09:12.883Z,99.90
2018-09-28T20:11:42.030Z,99.90
2018-09-28T20:14:10.768Z,99.90
2018-09-28T20:16:39.936Z,99.90
2018-09-28T20:19:11.171Z,99.90
2018-09-28T20:21:40.301Z,99.90
2018-09-28T20:24:09.053Z,99.90
2018-09-28T20:26:37.609Z,99.90
2018-09-28T20:29:06.986Z,99.90
2018-09-28T20:31:35.944Z,99.90
2018-09-28T20:34:05.030Z,99.90
2018-09-28T20:36:33.675Z,99.90
2018-09-28T20:39:02.350Z,99.90
2018-09-28T20:41:31.301Z,99.90
2018-09-28T20:43:59.946Z,99.90
2018-09-28T20:46:28.592Z,99.90
2018-09-28T20:48:57.304Z,99.90
2018-09-28T20:51:25.947Z,99.90
2018-09-28T20:53:54.707Z,99.90
2018-09-28T20:56:23.709Z,99.90
2018-09-28T20:58:52.610Z,99.90
2018-09-28T21:01:21.250Z,99.90
2018-09-28T21:03:50.153Z,99.90
2018-09-28T21:06:19.095Z,99.90
2018-09-28T21:08:48.210Z,99.90
2018-09-28T21:11:16.853Z,99.90
2018-09-28T21:13:45.622Z,99.90
2018-09-28T21:16:14.442Z,99.90
2018-09-28T21:18:43.077Z,99.90
2018-09-28T21:21:11.743Z,99.90
2018-09-28T21:23:40.480Z,99.90
2018-09-28T21:26:09.080Z,99.90
2018-09-28T21:28:37.739Z,99.90
2018-09-28T21:31:07.145Z,99.90
2018-09-28T21:33:35.998Z,99.90
2018-09-28T21:36:04.906Z,99.90
2018-09-28T21:38:33.567Z,99.90
2018-09-28T21:41:02.215Z,99.90
2018-09-28T21:43:30.886Z,99.90
2018-09-28T21:45:59.525Z,99.90
2018-09-28T21:48:28.181Z,99.90
2018-09-28T21:50:56.838Z,99.90
2018-09-28T21:53:25.504Z,99.90
2018-09-28T21:55:54.184Z,99.90
2018-09-28T21:58:22.838Z,99.90
2018-09-28T22:00:56.457Z,99.90
2018-09-28T22:03:25.353Z,99.90
2018-09-28T22:05:54.047Z,99.90
2018-09-28T22:08:22.702Z,99.90
2018-09-28T22:10:51.459Z,99.90
2018-09-28T22:13:20.087Z,99.90
2018-09-28T22:15:48.755Z,99.90
2018-09-28T22:18:17.410Z,99.90
2018-09-28T22:20:46.067Z,99.90
2018-09-28T22:23:16.164Z,99.90
2018-09-28T22:25:44.823Z,99.90
2018-09-28T22:28:13.490Z,99.90
2018-09-28T22:30:42.164Z,99.90
2018-09-28T22:33:10.814Z,99.90
2018-09-28T22:35:39.461Z,99.90
2018-09-28T22:38:08.102Z,99.90
2018-09-28T22:40:36.780Z,99.90
2018-09-28T22:43:05.641Z,99.90
2018-09-28T22:45:34.345Z,99.90
2018-09-28T22:48:02.994Z,99.90
2018-09-28T22:50:31.653Z,99.90
2018-09-28T22:53:00.309Z,99.90
2018-09-28T22:55:28.961Z,99.90
2018-09-28T22:57:57.610Z,99.90
2018-09-28T23:00:26.271Z,99.90
2018-09-28T23:02:54.930Z,99.90
2018-09-28T23:05:23.585Z,99.90
2018-09-28T23:07:52.274Z,99.90
2018-09-28T23:10:20.943Z,99.90
2018-09-28T23:12:49.607Z,99.90
2018-09-28T23:15:18.267Z,99.90
2018-09-28T23:17:46.914Z,99.90
2018-09-28T23:20:15.553Z,99.90
2018-09-28T23:22:44.207Z,99.90
2018-09-28T23:25:12.930Z,99.90
2018-09-28T23:27:41.550Z,99.90
2018-09-28T23:30:10.219Z,99.90
2018-09-28T23:32:38.853Z,99.90
2018-09-28T23:35:07.514Z,99.90
2018-09-28T23:37:36.194Z,99.90
2018-09-28T23:40:05.194Z,99.90
2018-09-28T23:42:33.842Z,99.90
2018-09-28T23:45:02.513Z,99.90
2018-09-28T23:47:31.181Z,99.90
2018-09-28T23:49:59.822Z,99.90
2018-09-28T23:52:28.478Z,99.90
2018-09-28T23:54:57.139Z,99.90
2018-09-28T23:57:25.788Z,99.90
2018-09-28T23:59:54.446Z,99.90
